Akaska, SD (57420)

7:44 PM CST on November 21, 2017 (GMT -0600)
1.5 mi east of Lowry, SD | | Change Station

Elev 1913 ft 45.31 °N, 99.94 °W | Updated 13 minutes ago

Clear
Clear
14.8 °F
Feels Like 15 °F
N
3.0
Wind Variable Wind from SE
Gusts 3.0 mph

Today
High -- | Low -- °F
--% Chance of Precip.
Yesterday
High -- | Low -- °F
Precip. -- in
Pressure 30.43 in
Visibility 10.0 miles
Clouds Clear
Windchill 15 °F
Dew Point 5 °F
Humidity 66%
Rainfall 0.00 in
Snow Depth Not available.
7:47 AM 5:04 PM
Waxing Crescent, 11% visible
METAR KMBG 220052Z AUTO 02006KT 10SM CLR M11/M17 A3031 RMK AO2 SLP302 T11111167
Pressure 30.43 in
Visibility 10.0 miles
Clouds Clear
Windchill 15 °F
Dew Point 5 °F
Humidity 66%
Rainfall 0.00 in
Snow Depth Not available.
7:47 AM 5:04 PM
Waxing Crescent, 11% visible
METAR KMBG 220052Z AUTO 02006KT 10SM CLR M11/M17 A3031 RMK AO2 SLP302 T11111167

Get Severe Weather Alerts

Thanks for signing up!

Be on the lookout for a verification email in your inbox.

You'll start receiving the daily forecast at 6 AM.

×

10-Day Weather Forecast

Almanac

Astronomy

Nov. 21, 2017 Rise Set
Actual Time
Civil Twilight
Nautical Twilight
Astronomical Twilight
Moon
Length of Visible Light
Length of Day
Tomorrow will be .
, % of the Moon is Illuminated

Today's Extremes

State Highs State Lows

Community

WunderPhotos

Category 6

Welcome to Category 6. This is the collective home for Weather Underground's featured writeups by Dr. Jeff Masters (right), Bob Henson (left), Chris Burt, and other regular contributors.

Nearby

Air Quality

  Air Quality AQ Index Pollutant
Not available.

Snow Depth

Station Depth Elevation

Earthquake Activity

City Distance Mag. Time & Date
Minimum magnitude displayed is 2.5.

Coastal Water Temperatures

Place Temperature

Stations

Nearby Weather Stations

Station Location Temp. Windchill Dew Point Humidity Wind Precip. Elev Updated Type
                   

Watches & Warnings

There are currently no watches in effect.